sensor_id;sensor_type;location;lat;lon;timestamp;P1;durP1;ratioP1;P2;durP2;ratioP2
21091;SDS011;10704;42.678;23.288;2023-11-22T00:02:06;34.60;;;18.40;;
21091;SDS011;10704;42.678;23.288;2023-11-22T00:04:32;33.63;;;17.45;;
21091;SDS011;10704;42.678;23.288;2023-11-22T00:06:58;33.60;;;19.08;;
21091;SDS011;10704;42.678;23.288;2023-11-22T00:09:24;34.20;;;17.45;;
21091;SDS011;10704;42.678;23.288;2023-11-22T00:11:50;36.67;;;18.80;;
21091;SDS011;10704;42.678;23.288;2023-11-22T00:14:16;30.85;;;17.55;;
21091;SDS011;10704;42.678;23.288;2023-11-22T00:16:42;33.13;;;17.92;;
21091;SDS011;10704;42.678;23.288;2023-11-22T00:19:08;32.47;;;17.85;;
21091;SDS011;10704;42.678;23.288;2023-11-22T00:21:34;30.00;;;16.60;;
21091;SDS011;10704;42.678;23.288;2023-11-22T00:24:00;29.00;;;16.98;;
21091;SDS011;10704;42.678;23.288;2023-11-22T00:26:26;34.28;;;18.30;;
21091;SDS011;10704;42.678;23.288;2023-11-22T00:28:56;31.05;;;18.25;;
21091;SDS011;10704;42.678;23.288;2023-11-22T00:31:22;26.30;;;16.38;;
21091;SDS011;10704;42.678;23.288;2023-11-22T00:36:57;33.97;;;17.85;;
21091;SDS011;10704;42.678;23.288;2023-11-22T00:46:59;37.35;;;17.83;;
21091;SDS011;10704;42.678;23.288;2023-11-22T00:49:25;31.45;;;17.60;;
21091;SDS011;10704;42.678;23.288;2023-11-22T00:51:51;31.33;;;17.55;;
21091;SDS011;10704;42.678;23.288;2023-11-22T00:54:17;28.33;;;16.15;;
21091;SDS011;10704;42.678;23.288;2023-11-22T00:56:45;31.40;;;16.88;;
21091;SDS011;10704;42.678;23.288;2023-11-22T00:59:12;32.30;;;18.67;;
21091;SDS011;10704;42.678;23.288;2023-11-22T01:04:30;31.25;;;18.08;;
21091;SDS011;10704;42.678;23.288;2023-11-22T01:07:00;31.38;;;17.67;;
21091;SDS011;10704;42.678;23.288;2023-11-22T01:13:14;32.00;;;17.40;;
21091;SDS011;10704;42.678;23.288;2023-11-22T01:15:40;31.15;;;16.65;;
21091;SDS011;10704;42.678;23.288;2023-11-22T01:18:06;30.73;;;16.55;;
21091;SDS011;10704;42.678;23.288;2023-11-22T01:20:33;30.20;;;16.35;;
21091;SDS011;10704;42.678;23.288;2023-11-22T01:22:59;28.85;;;16.10;;
21091;SDS011;10704;42.678;23.288;2023-11-22T01:25:25;29.25;;;15.60;;
21091;SDS011;10704;42.678;23.288;2023-11-22T01:27:53;34.30;;;17.05;;
21091;SDS011;10704;42.678;23.288;2023-11-22T01:30:20;28.85;;;16.13;;
21091;SDS011;10704;42.678;23.288;2023-11-22T01:32:45;28.60;;;17.77;;
21091;SDS011;10704;42.678;23.288;2023-11-22T01:35:11;30.15;;;16.20;;
21091;SDS011;10704;42.678;23.288;2023-11-22T01:45:03;28.02;;;16.55;;
21091;SDS011;10704;42.678;23.288;2023-11-22T01:57:45;29.83;;;15.35;;
21091;SDS011;10704;42.678;23.288;2023-11-22T02:03:57;31.60;;;15.55;;
21091;SDS011;10704;42.678;23.288;2023-11-22T02:06:24;27.13;;;16.17;;
21091;SDS011;10704;42.678;23.288;2023-11-22T02:08:50;30.80;;;16.08;;
21091;SDS011;10704;42.678;23.288;2023-11-22T02:11:17;29.20;;;15.93;;
21091;SDS011;10704;42.678;23.288;2023-11-22T02:17:34;28.67;;;15.05;;
21091;SDS011;10704;42.678;23.288;2023-11-22T02:20:01;26.65;;;15.60;;
21091;SDS011;10704;42.678;23.288;2023-11-22T02:33:55;24.60;;;14.32;;
21091;SDS011;10704;42.678;23.288;2023-11-22T02:36:21;23.52;;;14.25;;
21091;SDS011;10704;42.678;23.288;2023-11-22T02:52:59;22.83;;;13.93;;
21091;SDS011;10704;42.678;23.288;2023-11-22T02:55:25;27.15;;;14.85;;
21091;SDS011;10704;42.678;23.288;2023-11-22T02:57:51;26.63;;;14.55;;
21091;SDS011;10704;42.678;23.288;2023-11-22T03:00:17;25.73;;;13.80;;
21091;SDS011;10704;42.678;23.288;2023-11-22T03:02:45;21.92;;;12.98;;
21091;SDS011;10704;42.678;23.288;2023-11-22T03:05:12;22.08;;;14.30;;
21091;SDS011;10704;42.678;23.288;2023-11-22T03:07:39;23.05;;;13.57;;
21091;SDS011;10704;42.678;23.288;2023-11-22T03:10:08;23.48;;;13.70;;
21091;SDS011;10704;42.678;23.288;2023-11-22T03:19:14;23.15;;;13.38;;
21091;SDS011;10704;42.678;23.288;2023-11-22T03:21:41;21.90;;;12.98;;
21091;SDS011;10704;42.678;23.288;2023-11-22T03:24:09;24.67;;;13.50;;
21091;SDS011;10704;42.678;23.288;2023-11-22T03:26:35;30.35;;;14.77;;
21091;SDS011;10704;42.678;23.288;2023-11-22T03:29:01;24.02;;;14.50;;
21091;SDS011;10704;42.678;23.288;2023-11-22T03:31:27;23.15;;;14.35;;
21091;SDS011;10704;42.678;23.288;2023-11-22T03:33:54;23.75;;;12.70;;
21091;SDS011;10704;42.678;23.288;2023-11-22T03:40:08;26.65;;;13.20;;
21091;SDS011;10704;42.678;23.288;2023-11-22T03:42:39;25.55;;;14.25;;
21091;SDS011;10704;42.678;23.288;2023-11-22T03:45:06;24.45;;;14.32;;
21091;SDS011;10704;42.678;23.288;2023-11-22T03:47:32;27.33;;;14.30;;
21091;SDS011;10704;42.678;23.288;2023-11-22T03:49:58;23.83;;;13.10;;
21091;SDS011;10704;42.678;23.288;2023-11-22T03:52:27;23.90;;;14.18;;
21091;SDS011;10704;42.678;23.288;2023-11-22T03:58:41;24.30;;;13.70;;
21091;SDS011;10704;42.678;23.288;2023-11-22T04:01:07;25.20;;;13.60;;
21091;SDS011;10704;42.678;23.288;2023-11-22T04:07:21;24.85;;;14.43;;
21091;SDS011;10704;42.678;23.288;2023-11-22T04:09:47;26.80;;;14.68;;
21091;SDS011;10704;42.678;23.288;2023-11-22T04:12:14;28.13;;;15.63;;
21091;SDS011;10704;42.678;23.288;2023-11-22T04:14:39;24.63;;;14.77;;
21091;SDS011;10704;42.678;23.288;2023-11-22T04:17:05;26.27;;;14.82;;
21091;SDS011;10704;42.678;23.288;2023-11-22T04:22:48;24.15;;;14.40;;
21091;SDS011;10704;42.678;23.288;2023-11-22T04:29:02;26.73;;;14.98;;
21091;SDS011;10704;42.678;23.288;2023-11-22T04:31:29;27.70;;;13.90;;
21091;SDS011;10704;42.678;23.288;2023-11-22T04:33:55;24.70;;;13.23;;
21091;SDS011;10704;42.678;23.288;2023-11-22T04:36:23;28.50;;;15.25;;
21091;SDS011;10704;42.678;23.288;2023-11-22T04:38:49;25.05;;;13.80;;
21091;SDS011;10704;42.678;23.288;2023-11-22T04:41:15;27.60;;;15.20;;
21091;SDS011;10704;42.678;23.288;2023-11-22T04:43:42;27.27;;;14.88;;
21091;SDS011;10704;42.678;23.288;2023-11-22T04:46:10;27.55;;;15.00;;
21091;SDS011;10704;42.678;23.288;2023-11-22T04:48:36;22.92;;;13.25;;
21091;SDS011;10704;42.678;23.288;2023-11-22T04:51:04;24.58;;;13.10;;
21091;SDS011;10704;42.678;23.288;2023-11-22T04:53:30;30.73;;;14.43;;
21091;SDS011;10704;42.678;23.288;2023-11-22T04:55:57;22.73;;;14.15;;
21091;SDS011;10704;42.678;23.288;2023-11-22T04:58:24;25.42;;;15.25;;
21091;SDS011;10704;42.678;23.288;2023-11-22T05:00:50;27.50;;;13.90;;
21091;SDS011;10704;42.678;23.288;2023-11-22T05:03:16;24.48;;;14.20;;
21091;SDS011;10704;42.678;23.288;2023-11-22T05:05:42;27.65;;;14.68;;
21091;SDS011;10704;42.678;23.288;2023-11-22T05:08:08;28.67;;;14.25;;
21091;SDS011;10704;42.678;23.288;2023-11-22T05:10:34;22.25;;;14.40;;
21091;SDS011;10704;42.678;23.288;2023-11-22T05:13:00;28.70;;;14.90;;
21091;SDS011;10704;42.678;23.288;2023-11-22T05:15:26;24.00;;;14.50;;
21091;SDS011;10704;42.678;23.288;2023-11-22T05:17:52;30.35;;;15.18;;
21091;SDS011;10704;42.678;23.288;2023-11-22T05:20:18;28.27;;;15.57;;
21091;SDS011;10704;42.678;23.288;2023-11-22T05:22:44;21.50;;;14.40;;
21091;SDS011;10704;42.678;23.288;2023-11-22T05:25:10;28.23;;;16.58;;
21091;SDS011;10704;42.678;23.288;2023-11-22T05:27:36;27.20;;;15.02;;
21091;SDS011;10704;42.678;23.288;2023-11-22T05:30:02;24.85;;;15.18;;
21091;SDS011;10704;42.678;23.288;2023-11-22T05:32:29;29.27;;;14.75;;
21091;SDS011;10704;42.678;23.288;2023-11-22T05:34:56;26.38;;;14.50;;
21091;SDS011;10704;42.678;23.288;2023-11-22T05:37:22;23.05;;;13.20;;
21091;SDS011;10704;42.678;23.288;2023-11-22T05:43:36;24.15;;;12.80;;
21091;SDS011;10704;42.678;23.288;2023-11-22T05:46:02;24.05;;;13.82;;
21091;SDS011;10704;42.678;23.288;2023-11-22T05:48:28;23.25;;;14.02;;
21091;SDS011;10704;42.678;23.288;2023-11-22T05:50:55;25.02;;;14.88;;
21091;SDS011;10704;42.678;23.288;2023-11-22T05:53:21;26.42;;;15.40;;
21091;SDS011;10704;42.678;23.288;2023-11-22T05:55:47;31.52;;;20.35;;
21091;SDS011;10704;42.678;23.288;2023-11-22T05:58:17;32.08;;;18.40;;
21091;SDS011;10704;42.678;23.288;2023-11-22T06:00:43;30.65;;;18.98;;
21091;SDS011;10704;42.678;23.288;2023-11-22T06:03:13;33.00;;;20.95;;
21091;SDS011;10704;42.678;23.288;2023-11-22T06:05:39;30.75;;;18.90;;
21091;SDS011;10704;42.678;23.288;2023-11-22T06:08:05;32.05;;;17.80;;
21091;SDS011;10704;42.678;23.288;2023-11-22T06:10:31;29.23;;;16.83;;
21091;SDS011;10704;42.678;23.288;2023-11-22T06:12:57;29.63;;;18.58;;
21091;SDS011;10704;42.678;23.288;2023-11-22T06:15:23;28.17;;;17.60;;
21091;SDS011;10704;42.678;23.288;2023-11-22T06:17:50;27.73;;;16.48;;
21091;SDS011;10704;42.678;23.288;2023-11-22T06:20:16;30.23;;;17.30;;
21091;SDS011;10704;42.678;23.288;2023-11-22T06:22:42;26.10;;;16.35;;
21091;SDS011;10704;42.678;23.288;2023-11-22T06:25:09;28.95;;;17.08;;
21091;SDS011;10704;42.678;23.288;2023-11-22T06:27:36;28.98;;;18.48;;
21091;SDS011;10704;42.678;23.288;2023-11-22T06:30:02;27.42;;;17.40;;
21091;SDS011;10704;42.678;23.288;2023-11-22T06:32:28;28.73;;;16.80;;
21091;SDS011;10704;42.678;23.288;2023-11-22T06:34:54;29.00;;;15.98;;
21091;SDS011;10704;42.678;23.288;2023-11-22T06:37:20;26.13;;;16.20;;
21091;SDS011;10704;42.678;23.288;2023-11-22T06:39:46;28.58;;;17.90;;
21091;SDS011;10704;42.678;23.288;2023-11-22T06:42:12;26.85;;;15.82;;
21091;SDS011;10704;42.678;23.288;2023-11-22T06:44:38;36.67;;;19.65;;
21091;SDS011;10704;42.678;23.288;2023-11-22T06:47:05;39.00;;;22.20;;
21091;SDS011;10704;42.678;23.288;2023-11-22T06:49:32;37.25;;;21.50;;
21091;SDS011;10704;42.678;23.288;2023-11-22T06:51:59;27.90;;;17.02;;
21091;SDS011;10704;42.678;23.288;2023-11-22T06:54:25;30.83;;;18.40;;
21091;SDS011;10704;42.678;23.288;2023-11-22T06:56:51;35.78;;;18.83;;
21091;SDS011;10704;42.678;23.288;2023-11-22T06:59:18;25.75;;;15.40;;
21091;SDS011;10704;42.678;23.288;2023-11-22T07:01:44;26.20;;;13.88;;
21091;SDS011;10704;42.678;23.288;2023-11-22T07:04:10;23.55;;;14.80;;
21091;SDS011;10704;42.678;23.288;2023-11-22T07:06:37;21.27;;;13.57;;
21091;SDS011;10704;42.678;23.288;2023-11-22T07:09:03;49.22;;;23.48;;
21091;SDS011;10704;42.678;23.288;2023-11-22T07:11:30;39.38;;;20.10;;
21091;SDS011;10704;42.678;23.288;2023-11-22T07:13:56;35.72;;;19.60;;
21091;SDS011;10704;42.678;23.288;2023-11-22T07:16:25;31.92;;;18.95;;
21091;SDS011;10704;42.678;23.288;2023-11-22T07:18:51;34.05;;;19.52;;
21091;SDS011;10704;42.678;23.288;2023-11-22T07:21:17;32.75;;;18.55;;
21091;SDS011;10704;42.678;23.288;2023-11-22T07:23:44;28.85;;;17.30;;
21091;SDS011;10704;42.678;23.288;2023-11-22T07:26:10;26.30;;;16.25;;
21091;SDS011;10704;42.678;23.288;2023-11-22T07:28:39;35.25;;;17.98;;
21091;SDS011;10704;42.678;23.288;2023-11-22T07:31:08;27.65;;;16.73;;
21091;SDS011;10704;42.678;23.288;2023-11-22T07:33:34;28.38;;;17.77;;
21091;SDS011;10704;42.678;23.288;2023-11-22T07:36:01;29.80;;;17.85;;
21091;SDS011;10704;42.678;23.288;2023-11-22T07:38:28;32.30;;;16.00;;
21091;SDS011;10704;42.678;23.288;2023-11-22T07:40:57;34.47;;;18.45;;
21091;SDS011;10704;42.678;23.288;2023-11-22T07:43:24;36.30;;;16.70;;
21091;SDS011;10704;42.678;23.288;2023-11-22T07:45:49;26.13;;;14.07;;
21091;SDS011;10704;42.678;23.288;2023-11-22T07:48:16;24.02;;;13.63;;
21091;SDS011;10704;42.678;23.288;2023-11-22T07:50:43;29.52;;;15.20;;
21091;SDS011;10704;42.678;23.288;2023-11-22T07:53:10;28.38;;;14.40;;
21091;SDS011;10704;42.678;23.288;2023-11-22T07:55:37;23.63;;;13.10;;
21091;SDS011;10704;42.678;23.288;2023-11-22T07:58:04;20.42;;;10.95;;
21091;SDS011;10704;42.678;23.288;2023-11-22T08:00:33;34.55;;;17.02;;
21091;SDS011;10704;42.678;23.288;2023-11-22T08:03:00;39.08;;;17.42;;
21091;SDS011;10704;42.678;23.288;2023-11-22T08:05:29;32.83;;;16.00;;
21091;SDS011;10704;42.678;23.288;2023-11-22T08:08:01;24.10;;;13.35;;
21091;SDS011;10704;42.678;23.288;2023-11-22T08:10:36;27.33;;;15.00;;
21091;SDS011;10704;42.678;23.288;2023-11-22T08:13:03;27.50;;;14.88;;
21091;SDS011;10704;42.678;23.288;2023-11-22T08:15:29;35.25;;;18.05;;
21091;SDS011;10704;42.678;23.288;2023-11-22T08:17:57;27.60;;;15.90;;
21091;SDS011;10704;42.678;23.288;2023-11-22T08:20:26;27.00;;;15.57;;
21091;SDS011;10704;42.678;23.288;2023-11-22T08:22:52;32.28;;;15.80;;
21091;SDS011;10704;42.678;23.288;2023-11-22T08:25:18;25.13;;;13.90;;
21091;SDS011;10704;42.678;23.288;2023-11-22T08:27:43;26.05;;;13.55;;
21091;SDS011;10704;42.678;23.288;2023-11-22T08:30:10;23.88;;;14.40;;
21091;SDS011;10704;42.678;23.288;2023-11-22T08:32:44;24.15;;;14.32;;
21091;SDS011;10704;42.678;23.288;2023-11-22T08:35:16;29.27;;;14.75;;
21091;SDS011;10704;42.678;23.288;2023-11-22T08:37:42;23.02;;;15.40;;
21091;SDS011;10704;42.678;23.288;2023-11-22T08:40:09;24.95;;;16.45;;
21091;SDS011;10704;42.678;23.288;2023-11-22T08:42:39;29.83;;;17.15;;
21091;SDS011;10704;42.678;23.288;2023-11-22T08:45:06;30.27;;;17.55;;
21091;SDS011;10704;42.678;23.288;2023-11-22T08:47:33;29.77;;;18.83;;
21091;SDS011;10704;42.678;23.288;2023-11-22T08:49:59;33.38;;;17.77;;
21091;SDS011;10704;42.678;23.288;2023-11-22T08:52:28;30.88;;;18.92;;
21091;SDS011;10704;42.678;23.288;2023-11-22T08:54:56;30.05;;;18.80;;
21091;SDS011;10704;42.678;23.288;2023-11-22T09:01:09;30.27;;;18.50;;
21091;SDS011;10704;42.678;23.288;2023-11-22T09:03:35;33.50;;;20.58;;
21091;SDS011;10704;42.678;23.288;2023-11-22T09:06:03;36.22;;;22.38;;
21091;SDS011;10704;42.678;23.288;2023-11-22T09:08:29;43.92;;;23.23;;
21091;SDS011;10704;42.678;23.288;2023-11-22T09:10:55;31.15;;;19.23;;
21091;SDS011;10704;42.678;23.288;2023-11-22T09:13:21;34.92;;;21.05;;
21091;SDS011;10704;42.678;23.288;2023-11-22T09:15:47;37.25;;;24.10;;
21091;SDS011;10704;42.678;23.288;2023-11-22T09:18:13;47.70;;;28.33;;
21091;SDS011;10704;42.678;23.288;2023-11-22T09:20:39;49.95;;;31.30;;
21091;SDS011;10704;42.678;23.288;2023-11-22T09:23:09;45.83;;;27.50;;
21091;SDS011;10704;42.678;23.288;2023-11-22T09:25:35;42.30;;;26.50;;
21091;SDS011;10704;42.678;23.288;2023-11-22T09:28:01;41.47;;;23.33;;
21091;SDS011;10704;42.678;23.288;2023-11-22T09:30:28;39.55;;;23.73;;
21091;SDS011;10704;42.678;23.288;2023-11-22T09:33:14;37.85;;;22.65;;
21091;SDS011;10704;42.678;23.288;2023-11-22T09:35:41;35.75;;;21.40;;
21091;SDS011;10704;42.678;23.288;2023-11-22T09:38:11;24.95;;;16.75;;
21091;SDS011;10704;42.678;23.288;2023-11-22T09:40:41;30.85;;;17.98;;
21091;SDS011;10704;42.678;23.288;2023-11-22T09:43:11;32.08;;;21.63;;
21091;SDS011;10704;42.678;23.288;2023-11-22T09:45:43;58.00;;;30.83;;
21091;SDS011;10704;42.678;23.288;2023-11-22T09:53:31;32.47;;;20.58;;
21091;SDS011;10704;42.678;23.288;2023-11-22T09:56:07;30.30;;;17.67;;
21091;SDS011;10704;42.678;23.288;2023-11-22T09:58:35;24.65;;;16.48;;
21091;SDS011;10704;42.678;23.288;2023-11-22T10:01:04;24.55;;;16.48;;
21091;SDS011;10704;42.678;23.288;2023-11-22T10:03:33;38.75;;;20.55;;
21091;SDS011;10704;42.678;23.288;2023-11-22T10:05:59;31.38;;;19.38;;
21091;SDS011;10704;42.678;23.288;2023-11-22T10:08:25;36.17;;;20.98;;
21091;SDS011;10704;42.678;23.288;2023-11-22T10:10:53;29.60;;;17.90;;
21091;SDS011;10704;42.678;23.288;2023-11-22T10:13:19;26.08;;;15.90;;
21091;SDS011;10704;42.678;23.288;2023-11-22T10:15:50;25.40;;;15.13;;
21091;SDS011;10704;42.678;23.288;2023-11-22T10:18:18;20.35;;;13.27;;
21091;SDS011;10704;42.678;23.288;2023-11-22T10:20:45;24.70;;;14.68;;
21091;SDS011;10704;42.678;23.288;2023-11-22T10:23:13;19.08;;;12.40;;
21091;SDS011;10704;42.678;23.288;2023-11-22T10:25:43;19.88;;;12.32;;
21091;SDS011;10704;42.678;23.288;2023-11-22T10:28:11;18.90;;;12.48;;
21091;SDS011;10704;42.678;23.288;2023-11-22T10:30:37;21.38;;;13.13;;
21091;SDS011;10704;42.678;23.288;2023-11-22T10:33:05;23.02;;;13.15;;
21091;SDS011;10704;42.678;23.288;2023-11-22T10:35:31;21.58;;;14.55;;
21091;SDS011;10704;42.678;23.288;2023-11-22T10:38:00;24.35;;;14.98;;
21091;SDS011;10704;42.678;23.288;2023-11-22T10:40:31;24.10;;;14.05;;
21091;SDS011;10704;42.678;23.288;2023-11-22T10:42:57;22.67;;;14.05;;
21091;SDS011;10704;42.678;23.288;2023-11-22T10:45:24;19.92;;;13.02;;
21091;SDS011;10704;42.678;23.288;2023-11-22T10:47:52;24.05;;;14.05;;
21091;SDS011;10704;42.678;23.288;2023-11-22T10:50:21;24.80;;;14.70;;
21091;SDS011;10704;42.678;23.288;2023-11-22T10:52:47;23.67;;;15.00;;
21091;SDS011;10704;42.678;23.288;2023-11-22T11:05:50;23.73;;;15.10;;
21091;SDS011;10704;42.678;23.288;2023-11-22T11:08:29;23.48;;;14.20;;
21091;SDS011;10704;42.678;23.288;2023-11-22T11:10:57;26.08;;;16.08;;
21091;SDS011;10704;42.678;23.288;2023-11-22T11:13:24;26.15;;;14.68;;
21091;SDS011;10704;42.678;23.288;2023-11-22T11:15:50;26.42;;;14.18;;
21091;SDS011;10704;42.678;23.288;2023-11-22T11:18:18;22.13;;;13.27;;
21091;SDS011;10704;42.678;23.288;2023-11-22T11:23:15;27.40;;;15.23;;
21091;SDS011;10704;42.678;23.288;2023-11-22T11:25:42;19.77;;;13.80;;
21091;SDS011;10704;42.678;23.288;2023-11-22T11:28:11;25.50;;;14.55;;
21091;SDS011;10704;42.678;23.288;2023-11-22T11:34:49;22.52;;;14.25;;
21091;SDS011;10704;42.678;23.288;2023-11-22T11:37:15;26.17;;;16.65;;
21091;SDS011;10704;42.678;23.288;2023-11-22T11:39:44;30.75;;;18.77;;
21091;SDS011;10704;42.678;23.288;2023-11-22T11:42:10;31.77;;;19.05;;
21091;SDS011;10704;42.678;23.288;2023-11-22T11:44:50;31.08;;;19.10;;
21091;SDS011;10704;42.678;23.288;2023-11-22T11:47:27;27.67;;;17.23;;
21091;SDS011;10704;42.678;23.288;2023-11-22T11:49:57;27.23;;;17.02;;
21091;SDS011;10704;42.678;23.288;2023-11-22T11:52:24;36.80;;;21.77;;
21091;SDS011;10704;42.678;23.288;2023-11-22T11:54:51;37.40;;;20.42;;
21091;SDS011;10704;42.678;23.288;2023-11-22T11:57:17;33.72;;;18.92;;
21091;SDS011;10704;42.678;23.288;2023-11-22T11:59:42;31.92;;;19.58;;
21091;SDS011;10704;42.678;23.288;2023-11-22T12:02:10;30.92;;;19.48;;
21091;SDS011;10704;42.678;23.288;2023-11-22T12:04:36;30.23;;;18.10;;
21091;SDS011;10704;42.678;23.288;2023-11-22T12:07:02;33.80;;;22.35;;
21091;SDS011;10704;42.678;23.288;2023-11-22T12:09:28;34.78;;;21.35;;
21091;SDS011;10704;42.678;23.288;2023-11-22T12:11:55;32.65;;;20.85;;
21091;SDS011;10704;42.678;23.288;2023-11-22T12:14:22;44.90;;;27.73;;
21091;SDS011;10704;42.678;23.288;2023-11-22T12:16:52;57.42;;;37.60;;
21091;SDS011;10704;42.678;23.288;2023-11-22T12:19:21;69.88;;;46.53;;
21091;SDS011;10704;42.678;23.288;2023-11-22T12:21:53;68.07;;;44.75;;
21091;SDS011;10704;42.678;23.288;2023-11-22T12:24:20;65.60;;;43.97;;
21091;SDS011;10704;42.678;23.288;2023-11-22T12:26:47;64.65;;;40.83;;
21091;SDS011;10704;42.678;23.288;2023-11-22T12:29:15;55.70;;;35.42;;
21091;SDS011;10704;42.678;23.288;2023-11-22T12:31:45;57.08;;;36.10;;
21091;SDS011;10704;42.678;23.288;2023-11-22T12:34:20;50.33;;;33.35;;
21091;SDS011;10704;42.678;23.288;2023-11-22T12:36:47;46.15;;;31.67;;
21091;SDS011;10704;42.678;23.288;2023-11-22T12:39:16;47.80;;;32.10;;
21091;SDS011;10704;42.678;23.288;2023-11-22T12:41:50;46.88;;;30.42;;
21091;SDS011;10704;42.678;23.288;2023-11-22T12:44:17;46.80;;;29.40;;
21091;SDS011;10704;42.678;23.288;2023-11-22T12:49:24;35.50;;;22.70;;
21091;SDS011;10704;42.678;23.288;2023-11-22T12:51:53;40.35;;;22.23;;
21091;SDS011;10704;42.678;23.288;2023-11-22T12:54:22;35.10;;;21.52;;
21091;SDS011;10704;42.678;23.288;2023-11-22T12:56:49;33.40;;;21.08;;
21091;SDS011;10704;42.678;23.288;2023-11-22T12:59:24;31.42;;;19.75;;
21091;SDS011;10704;42.678;23.288;2023-11-22T13:01:53;30.83;;;18.35;;
21091;SDS011;10704;42.678;23.288;2023-11-22T13:04:19;34.08;;;18.80;;
21091;SDS011;10704;42.678;23.288;2023-11-22T13:06:45;29.33;;;16.50;;
21091;SDS011;10704;42.678;23.288;2023-11-22T13:09:11;26.77;;;17.08;;
21091;SDS011;10704;42.678;23.288;2023-11-22T13:11:40;26.05;;;15.57;;
21091;SDS011;10704;42.678;23.288;2023-11-22T13:14:07;28.27;;;19.23;;
21091;SDS011;10704;42.678;23.288;2023-11-22T13:20:27;28.02;;;17.30;;
21091;SDS011;10704;42.678;23.288;2023-11-22T13:22:54;30.60;;;18.55;;
21091;SDS011;10704;42.678;23.288;2023-11-22T13:25:21;30.63;;;19.30;;
21091;SDS011;10704;42.678;23.288;2023-11-22T13:31:36;29.63;;;17.05;;
21091;SDS011;10704;42.678;23.288;2023-11-22T13:37:49;27.55;;;15.73;;
21091;SDS011;10704;42.678;23.288;2023-11-22T13:40:16;26.17;;;15.25;;
21091;SDS011;10704;42.678;23.288;2023-11-22T13:42:47;24.02;;;15.27;;
21091;SDS011;10704;42.678;23.288;2023-11-22T13:45:15;23.70;;;13.15;;
21091;SDS011;10704;42.678;23.288;2023-11-22T13:51:32;25.90;;;14.95;;
21091;SDS011;10704;42.678;23.288;2023-11-22T13:54:00;20.50;;;12.73;;
21091;SDS011;10704;42.678;23.288;2023-11-22T13:56:26;19.35;;;11.63;;
21091;SDS011;10704;42.678;23.288;2023-11-22T13:58:51;23.45;;;13.80;;
21091;SDS011;10704;42.678;23.288;2023-11-22T14:01:18;23.30;;;12.55;;
21091;SDS011;10704;42.678;23.288;2023-11-22T14:03:46;23.33;;;12.05;;
21091;SDS011;10704;42.678;23.288;2023-11-22T14:06:13;23.02;;;12.32;;
21091;SDS011;10704;42.678;23.288;2023-11-22T14:08:41;19.25;;;11.27;;
21091;SDS011;10704;42.678;23.288;2023-11-22T14:11:07;23.73;;;12.82;;
21091;SDS011;10704;42.678;23.288;2023-11-22T14:13:33;20.50;;;12.30;;
21091;SDS011;10704;42.678;23.288;2023-11-22T14:15:59;18.25;;;11.70;;
21091;SDS011;10704;42.678;23.288;2023-11-22T14:18:26;17.98;;;10.85;;
21091;SDS011;10704;42.678;23.288;2023-11-22T14:20:52;23.75;;;12.27;;
21091;SDS011;10704;42.678;23.288;2023-11-22T14:23:19;23.90;;;11.68;;
21091;SDS011;10704;42.678;23.288;2023-11-22T14:25:44;19.92;;;10.98;;
21091;SDS011;10704;42.678;23.288;2023-11-22T14:28:10;20.38;;;11.07;;
21091;SDS011;10704;42.678;23.288;2023-11-22T14:30:36;18.80;;;10.80;;
21091;SDS011;10704;42.678;23.288;2023-11-22T14:33:02;18.73;;;9.15;;
21091;SDS011;10704;42.678;23.288;2023-11-22T14:35:32;16.95;;;9.85;;
21091;SDS011;10704;42.678;23.288;2023-11-22T14:41:47;19.60;;;10.18;;
21091;SDS011;10704;42.678;23.288;2023-11-22T14:44:13;16.55;;;9.48;;
21091;SDS011;10704;42.678;23.288;2023-11-22T14:46:39;14.25;;;10.27;;
21091;SDS011;10704;42.678;23.288;2023-11-22T14:49:05;18.10;;;10.85;;
21091;SDS011;10704;42.678;23.288;2023-11-22T14:51:32;20.30;;;11.30;;
21091;SDS011;10704;42.678;23.288;2023-11-22T14:53:58;20.33;;;12.93;;
21091;SDS011;10704;42.678;23.288;2023-11-22T14:56:24;22.88;;;14.00;;
21091;SDS011;10704;42.678;23.288;2023-11-22T15:02:37;20.55;;;12.43;;
21091;SDS011;10704;42.678;23.288;2023-11-22T15:05:04;21.70;;;12.63;;
21091;SDS011;10704;42.678;23.288;2023-11-22T15:07:35;23.83;;;12.73;;
21091;SDS011;10704;42.678;23.288;2023-11-22T15:10:06;21.13;;;12.80;;
21091;SDS011;10704;42.678;23.288;2023-11-22T15:12:36;24.40;;;13.43;;
21091;SDS011;10704;42.678;23.288;2023-11-22T15:15:05;22.85;;;13.57;;
21091;SDS011;10704;42.678;23.288;2023-11-22T15:17:33;24.08;;;13.98;;
21091;SDS011;10704;42.678;23.288;2023-11-22T15:19:59;20.08;;;12.88;;
21091;SDS011;10704;42.678;23.288;2023-11-22T15:22:26;25.25;;;13.85;;
21091;SDS011;10704;42.678;23.288;2023-11-22T15:24:52;22.70;;;13.50;;
21091;SDS011;10704;42.678;23.288;2023-11-22T15:27:17;26.92;;;15.85;;
21091;SDS011;10704;42.678;23.288;2023-11-22T15:29:43;28.08;;;15.27;;
21091;SDS011;10704;42.678;23.288;2023-11-22T15:32:09;28.92;;;16.13;;
21091;SDS011;10704;42.678;23.288;2023-11-22T15:34:35;28.80;;;16.70;;
21091;SDS011;10704;42.678;23.288;2023-11-22T15:37:03;34.17;;;17.65;;
21091;SDS011;10704;42.678;23.288;2023-11-22T15:39:30;30.38;;;15.80;;
21091;SDS011;10704;42.678;23.288;2023-11-22T15:41:56;32.25;;;17.40;;
21091;SDS011;10704;42.678;23.288;2023-11-22T15:44:22;28.85;;;16.77;;
21091;SDS011;10704;42.678;23.288;2023-11-22T15:46:48;31.38;;;18.58;;
21091;SDS011;10704;42.678;23.288;2023-11-22T15:49:15;35.97;;;18.92;;
21091;SDS011;10704;42.678;23.288;2023-11-22T15:51:41;36.17;;;19.95;;
21091;SDS011;10704;42.678;23.288;2023-11-22T15:54:07;36.15;;;20.98;;
21091;SDS011;10704;42.678;23.288;2023-11-22T15:56:33;32.78;;;19.13;;
21091;SDS011;10704;42.678;23.288;2023-11-22T15:58:59;34.15;;;21.67;;
21091;SDS011;10704;42.678;23.288;2023-11-22T16:01:26;32.67;;;21.60;;
21091;SDS011;10704;42.678;23.288;2023-11-22T16:03:53;36.88;;;20.88;;
21091;SDS011;10704;42.678;23.288;2023-11-22T16:06:20;34.47;;;21.10;;
21091;SDS011;10704;42.678;23.288;2023-11-22T16:08:46;34.08;;;20.45;;
21091;SDS011;10704;42.678;23.288;2023-11-22T16:11:12;33.22;;;20.25;;
21091;SDS011;10704;42.678;23.288;2023-11-22T16:13:38;36.45;;;20.42;;
21091;SDS011;10704;42.678;23.288;2023-11-22T16:16:04;35.55;;;19.23;;
21091;SDS011;10704;42.678;23.288;2023-11-22T16:18:31;31.92;;;19.25;;
21091;SDS011;10704;42.678;23.288;2023-11-22T16:20:59;32.25;;;18.58;;
21091;SDS011;10704;42.678;23.288;2023-11-22T16:23:25;30.58;;;18.48;;
21091;SDS011;10704;42.678;23.288;2023-11-22T16:25:50;31.35;;;18.77;;
21091;SDS011;10704;42.678;23.288;2023-11-22T16:28:17;29.45;;;16.27;;
21091;SDS011;10704;42.678;23.288;2023-11-22T16:30:43;29.73;;;18.17;;
21091;SDS011;10704;42.678;23.288;2023-11-22T16:36:57;25.00;;;13.13;;
21091;SDS011;10704;42.678;23.288;2023-11-22T16:43:11;28.02;;;14.68;;
21091;SDS011;10704;42.678;23.288;2023-11-22T16:45:38;25.67;;;13.98;;